Time;durP1;ratioP1;P1;durP2;ratioP2;P2;SDS_P1;SDS_P2;PMS_P1;PMS_P2;Temp;Humidity;BMP_temperature;BMP_pressure;BME280_temperature;BME280_humidity;BME280_pressure;Samples;Min_cycle;Max_cycle;Signal;HPM_P1;HPM_P2
2023/01/27 00:01:56;;;;;;;0.20;0.20;;;6.30;99.90;;;;;;4969623;28;20046;-66
2023/01/27 00:04:22;;;;;;;0.95;0.95;;;6.30;99.90;;;;;;4991725;28;20055;-66
2023/01/27 00:06:48;;;;;;;0.10;0.10;;;6.30;99.90;;;;;;4990382;28;20042;-66
2023/01/27 00:09:14;;;;;;;0.57;0.57;;;6.30;99.90;;;;;;4987194;28;20536;-66
2023/01/27 00:14:24;;;;;;;0.40;0.40;;;6.30;99.90;;;;;;4991893;28;20050;-66
2023/01/27 00:16:49;;;;;;;0.10;0.10;;;6.20;99.90;;;;;;4989958;28;20053;-66
2023/01/27 00:19:18;;;;;;;0.10;0.10;;;6.20;99.90;;;;;;4989082;28;20150;-66
2023/01/27 00:24:35;;;;;;;0.10;0.10;;;6.20;99.90;;;;;;4989156;28;20069;-66
2023/01/27 00:27:02;;;;;;;0.32;0.32;;;6.10;99.90;;;;;;4990080;28;20038;-67
2023/01/27 00:29:28;;;;;;;0.40;0.40;;;6.10;99.90;;;;;;4991328;28;20085;-67
2023/01/27 00:34:40;;;;;;;0.10;0.10;;;6.10;99.90;;;;;;4988895;28;20049;-68
2023/01/27 00:37:06;;;;;;;0.20;0.20;;;6.00;99.90;;;;;;4989861;28;20490;-66
2023/01/27 00:39:31;;;;;;;0.10;0.10;;;6.00;99.90;;;;;;4971291;28;20054;-66
2023/01/27 00:41:57;;;;;;;0.10;0.10;;;6.00;99.90;;;;;;4989317;28;20082;-66
2023/01/27 00:44:23;;;;;;;0.20;0.20;;;5.90;99.90;;;;;;4989999;28;20038;-66
2023/01/27 00:46:49;;;;;;;0.10;0.10;;;5.90;99.90;;;;;;4989395;28;20556;-66
2023/01/27 00:49:15;;;;;;;0.32;0.32;;;5.90;99.90;;;;;;4988702;28;20081;-66
2023/01/27 00:51:41;;;;;;;0.10;0.10;;;5.90;99.90;;;;;;4990167;28;20105;-66
2023/01/27 00:54:07;;;;;;;0.00;0.00;;;5.90;99.90;;;;;;4991059;28;20046;-66
2023/01/27 00:56:33;;;;;;;0.10;0.10;;;5.90;99.90;;;;;;4989679;28;20148;-66
2023/01/27 00:58:59;;;;;;;0.10;0.10;;;5.90;99.90;;;;;;4973092;28;20046;-66
2023/01/27 01:01:25;;;;;;;0.10;0.10;;;5.90;99.90;;;;;;4988482;28;20073;-66
2023/01/27 01:03:51;;;;;;;0.10;0.10;;;5.90;99.90;;;;;;4972073;28;20042;-66
2023/01/27 01:06:18;;;;;;;0.10;0.10;;;5.90;99.90;;;;;;4987628;28;20092;-66
2023/01/27 01:08:44;;;;;;;0.10;0.10;;;5.90;99.90;;;;;;4988800;28;20034;-66
2023/01/27 01:11:15;;;;;;;0.15;0.15;;;5.90;99.90;;;;;;4989297;28;20054;-67
2023/01/27 01:13:42;;;;;;;15.55;1.17;;;5.90;99.90;;;;;;4988660;28;20038;-66
2023/01/27 01:16:10;;;;;;;0.10;0.10;;;5.90;99.90;;;;;;4989753;28;20054;-66
2023/01/27 01:18:37;;;;;;;1.17;0.85;;;5.90;99.90;;;;;;4989223;28;20048;-66
2023/01/27 01:21:05;;;;;;;0.10;0.10;;;5.90;99.90;;;;;;4980385;28;20058;-66
2023/01/27 01:23:32;;;;;;;0.35;0.35;;;5.90;99.90;;;;;;4989327;28;20119;-66
2023/01/27 01:25:58;;;;;;;0.28;0.28;;;5.90;99.90;;;;;;4989114;28;20047;-66
2023/01/27 01:28:24;;;;;;;0.10;0.10;;;5.90;99.90;;;;;;4980360;28;20048;-67
2023/01/27 01:30:50;;;;;;;0.20;0.20;;;5.90;99.90;;;;;;4985246;28;20057;-66
2023/01/27 01:33:16;;;;;;;0.22;0.22;;;5.90;99.90;;;;;;4988866;28;20043;-66
2023/01/27 01:35:42;;;;;;;0.10;0.10;;;5.90;99.90;;;;;;4989031;28;20096;-66
2023/01/27 01:38:08;;;;;;;0.10;0.10;;;5.80;99.90;;;;;;4988903;28;20382;-66
2023/01/27 01:40:42;;;;;;;0.10;0.10;;;5.80;99.90;;;;;;4987114;28;20038;-66
2023/01/27 01:43:14;;;;;;;0.10;0.10;;;5.80;99.90;;;;;;4986252;28;20089;-66
2023/01/27 01:45:47;;;;;;;0.10;0.10;;;5.80;99.90;;;;;;4988727;28;20465;-67
2023/01/27 01:48:13;;;;;;;0.40;0.40;;;5.80;99.90;;;;;;4988325;28;20046;-66
2023/01/27 01:50:41;;;;;;;0.13;0.13;;;5.80;99.90;;;;;;4989133;28;20140;-66
2023/01/27 01:53:09;;;;;;;0.25;0.25;;;5.80;99.90;;;;;;4971822;28;20046;-67
2023/01/27 01:55:36;;;;;;;0.10;0.10;;;5.70;99.90;;;;;;4990377;28;20045;-66
2023/01/27 01:58:04;;;;;;;0.13;0.13;;;5.70;99.90;;;;;;4988197;28;20039;-66
2023/01/27 02:00:30;;;;;;;1.75;1.27;;;5.60;99.90;;;;;;4989985;28;20049;-66
2023/01/27 02:02:55;;;;;;;0.52;0.52;;;5.60;99.90;;;;;;4988555;28;20049;-67
2023/01/27 02:05:26;;;;;;;0.10;0.10;;;5.70;99.90;;;;;;4970674;28;20133;-66
2023/01/27 02:08:06;;;;;;;0.28;0.28;;;5.60;99.90;;;;;;4988087;28;20038;-66
2023/01/27 02:10:33;;;;;;;0.32;0.32;;;5.60;99.90;;;;;;4987832;28;20412;-66
2023/01/27 02:12:59;;;;;;;0.03;0.03;;;5.60;99.90;;;;;;4969722;28;20054;-66
2023/01/27 02:15:25;;;;;;;0.10;0.10;;;5.60;99.90;;;;;;4989425;28;20503;-66
2023/01/27 02:17:51;;;;;;;0.03;0.03;;;5.60;99.90;;;;;;4987134;28;20038;-66
2023/01/27 02:20:33;;;;;;;0.30;0.30;;;5.50;99.90;;;;;;4986669;28;20052;-66
2023/01/27 02:23:19;;;;;;;0.10;0.10;;;5.60;99.90;;;;;;4987084;28;20043;-66
2023/01/27 02:25:47;;;;;;;0.10;0.10;;;5.60;99.90;;;;;;4987475;28;20046;-66
2023/01/27 02:28:13;;;;;;;0.10;0.10;;;5.60;99.90;;;;;;4986789;28;20065;-66
2023/01/27 02:30:39;;;;;;;0.10;0.10;;;5.60;99.90;;;;;;4989188;28;20046;-66
2023/01/27 02:33:11;;;;;;;0.10;0.10;;;5.60;99.90;;;;;;4986768;28;20041;-66
2023/01/27 02:36:00;;;;;;;0.10;0.10;;;5.60;99.90;;;;;;4970084;28;20058;-66
2023/01/27 02:38:30;;;;;;;0.10;0.10;;;5.60;99.90;;;;;;4980048;28;20042;-66
2023/01/27 02:41:02;;;;;;;0.10;0.10;;;5.50;99.90;;;;;;4985974;28;20034;-66
2023/01/27 02:43:28;;;;;;;0.10;0.10;;;5.50;99.90;;;;;;4970017;28;20125;-66
2023/01/27 02:45:54;;;;;;;0.10;0.10;;;5.50;99.90;;;;;;4985864;28;20141;-66
2023/01/27 02:48:19;;;;;;;0.10;0.10;;;5.40;99.90;;;;;;4987640;28;20104;-66
2023/01/27 02:50:45;;;;;;;1.85;1.75;;;5.50;99.90;;;;;;4987351;28;20042;-66
2023/01/27 02:53:11;;;;;;;0.17;0.17;;;5.50;99.90;;;;;;4986913;28;20046;-66
2023/01/27 02:55:37;;;;;;;0.10;0.10;;;5.50;99.90;;;;;;4970717;28;20056;-66
2023/01/27 02:58:02;;;;;;;2.28;1.75;;;5.50;99.90;;;;;;4987808;28;20035;-66
2023/01/27 03:00:28;;;;;;;0.10;0.10;;;5.50;99.90;;;;;;4987912;28;20044;-66
2023/01/27 03:02:54;;;;;;;0.10;0.10;;;5.50;99.90;;;;;;4988150;28;20458;-67
2023/01/27 03:05:20;;;;;;;3.40;1.85;;;5.50;99.90;;;;;;4988574;28;20093;-66
2023/01/27 03:07:45;;;;;;;0.10;0.10;;;5.50;99.90;;;;;;4971087;28;20590;-66
2023/01/27 03:10:11;;;;;;;0.10;0.10;;;5.50;99.90;;;;;;4985655;28;20525;-66
2023/01/27 03:12:37;;;;;;;0.10;0.10;;;5.50;99.90;;;;;;4988747;28;20038;-66
2023/01/27 03:20:31;;;;;;;0.10;0.10;;;5.50;99.90;;;;;;4981693;28;20110;-66
2023/01/27 03:22:57;;;;;;;0.10;0.10;;;5.50;99.90;;;;;;4986161;28;20039;-66
2023/01/27 03:25:23;;;;;;;0.10;0.10;;;5.40;99.90;;;;;;4987086;28;20050;-66
2023/01/27 03:27:49;;;;;;;2.90;1.13;;;5.40;99.90;;;;;;4987869;28;20066;-65
2023/01/27 03:30:15;;;;;;;0.10;0.10;;;5.40;99.90;;;;;;4983748;28;20537;-65
2023/01/27 03:32:45;;;;;;;0.10;0.10;;;5.40;99.90;;;;;;4970342;28;20054;-65
2023/01/27 03:35:13;;;;;;;0.20;0.20;;;5.40;99.90;;;;;;4987752;28;20046;-65
2023/01/27 03:48:38;;;;;;;0.70;0.70;;;5.40;99.90;;;;;;4992494;28;20051;-65
2023/01/27 03:51:06;;;;;;;0.10;0.10;;;5.40;99.90;;;;;;4988767;28;20050;-65
2023/01/27 03:53:33;;;;;;;0.10;0.10;;;5.40;99.90;;;;;;4991032;28;20126;-65
2023/01/27 03:55:59;;;;;;;0.10;0.10;;;5.40;99.90;;;;;;4990667;28;20078;-65
2023/01/27 03:58:26;;;;;;;0.10;0.10;;;5.40;99.90;;;;;;4989947;28;20038;-65
2023/01/27 04:00:56;;;;;;;0.40;0.40;;;5.30;99.90;;;;;;4987552;28;20039;-65
2023/01/27 04:08:57;;;;;;;0.10;0.10;;;5.20;99.90;;;;;;4990768;28;20060;-65
2023/01/27 04:14:08;;;;;;;0.10;0.10;;;5.10;99.90;;;;;;4990924;28;20046;-65
2023/01/27 04:16:38;;;;;;;0.10;0.10;;;5.10;99.90;;;;;;4990463;28;20601;-66
2023/01/27 04:19:05;;;;;;;0.10;0.10;;;5.10;99.90;;;;;;4989185;28;20042;-65
2023/01/27 04:21:32;;;;;;;0.10;0.10;;;5.10;99.90;;;;;;4972974;28;20053;-65
2023/01/27 04:23:58;;;;;;;0.10;0.10;;;5.10;99.90;;;;;;4990957;28;20470;-65
2023/01/27 04:26:24;;;;;;;1.00;0.98;;;5.10;99.90;;;;;;4990620;28;20135;-65
2023/01/27 04:28:50;;;;;;;0.15;0.15;;;5.00;99.90;;;;;;4974536;28;20093;-65
2023/01/27 04:31:16;;;;;;;0.10;0.10;;;5.00;99.90;;;;;;4990467;28;20042;-65
2023/01/27 04:33:43;;;;;;;0.10;0.10;;;4.90;99.90;;;;;;4989611;28;20048;-65
2023/01/27 04:36:11;;;;;;;0.10;0.10;;;4.90;99.90;;;;;;4990272;28;20073;-65
2023/01/27 04:38:37;;;;;;;0.10;0.10;;;4.90;99.90;;;;;;4988721;28;20045;-65
2023/01/27 04:41:02;;;;;;;0.10;0.10;;;4.80;99.90;;;;;;4972804;28;20054;-65
2023/01/27 04:43:28;;;;;;;0.10;0.10;;;4.80;99.90;;;;;;4973507;28;20050;-65
2023/01/27 04:45:54;;;;;;;0.10;0.10;;;4.80;99.90;;;;;;4990952;28;20450;-64
2023/01/27 04:48:20;;;;;;;0.10;0.10;;;4.80;99.90;;;;;;4984565;28;20053;-65
2023/01/27 04:50:46;;;;;;;0.10;0.10;;;4.80;99.90;;;;;;4988573;28;20042;-65
2023/01/27 04:53:12;;;;;;;0.10;0.10;;;4.90;99.90;;;;;;4988706;28;20121;-65
2023/01/27 04:55:37;;;;;;;0.20;0.20;;;4.90;99.90;;;;;;4990101;28;20399;-65
2023/01/27 04:58:04;;;;;;;0.20;0.20;;;4.90;99.90;;;;;;4990162;28;20104;-65
2023/01/27 05:00:30;;;;;;;0.10;0.10;;;4.90;99.90;;;;;;4973541;28;20085;-65
2023/01/27 05:02:56;;;;;;;0.10;0.10;;;4.90;99.90;;;;;;4988450;28;20070;-65
2023/01/27 05:05:21;;;;;;;0.10;0.10;;;5.00;99.90;;;;;;4989687;28;20129;-65
2023/01/27 05:07:47;;;;;;;1.60;0.85;;;4.90;99.90;;;;;;4989686;28;20093;-66
2023/01/27 05:10:13;;;;;;;0.10;0.10;;;4.90;99.90;;;;;;4989007;28;20565;-65
2023/01/27 05:12:38;;;;;;;0.10;0.10;;;4.90;99.90;;;;;;4989939;28;20126;-65
2023/01/27 05:15:04;;;;;;;0.10;0.10;;;4.80;99.90;;;;;;4989251;28;20824;-64
2023/01/27 05:17:33;;;;;;;0.10;0.10;;;4.80;99.90;;;;;;4983457;28;20062;-64
2023/01/27 05:19:59;;;;;;;0.10;0.10;;;4.70;99.90;;;;;;4987583;28;20042;-65
2023/01/27 05:22:25;;;;;;;0.65;0.65;;;4.70;99.90;;;;;;4989010;28;20038;-65
2023/01/27 05:24:51;;;;;;;0.10;0.10;;;4.70;99.90;;;;;;4971176;28;20578;-65
2023/01/27 05:27:16;;;;;;;0.10;0.10;;;4.70;99.90;;;;;;4989889;28;20057;-65
2023/01/27 05:29:42;;;;;;;0.10;0.10;;;4.70;99.90;;;;;;4988326;28;20045;-65
2023/01/27 05:32:08;;;;;;;0.10;0.10;;;4.60;99.90;;;;;;4986737;28;20065;-66
2023/01/27 05:34:35;;;;;;;1.35;1.00;;;4.60;99.90;;;;;;4988628;28;20042;-65
2023/01/27 05:37:00;;;;;;;0.10;0.10;;;4.50;99.90;;;;;;4987057;28;20101;-65
2023/01/27 05:39:26;;;;;;;9.07;1.38;;;4.50;99.90;;;;;;4989492;28;20125;-65
2023/01/27 05:41:53;;;;;;;0.10;0.10;;;4.50;99.90;;;;;;4990328;28;20101;-65
2023/01/27 05:44:18;;;;;;;0.10;0.10;;;4.40;99.90;;;;;;4988692;28;20049;-65
2023/01/27 05:46:44;;;;;;;0.10;0.10;;;4.40;99.90;;;;;;4980292;28;20034;-65
2023/01/27 05:49:10;;;;;;;0.85;0.85;;;4.30;99.90;;;;;;4985637;28;20054;-65
2023/01/27 05:51:38;;;;;;;0.10;0.10;;;4.40;99.90;;;;;;4985943;28;20055;-65
2023/01/27 05:54:04;;;;;;;0.10;0.10;;;4.40;99.90;;;;;;4987134;28;20498;-64
2023/01/27 05:56:30;;;;;;;0.10;0.10;;;4.40;99.90;;;;;;4989440;28;20141;-65
2023/01/27 05:58:57;;;;;;;0.10;0.10;;;4.40;99.90;;;;;;4986786;28;20046;-65
2023/01/27 06:01:28;;;;;;;0.10;0.10;;;4.40;99.90;;;;;;4989939;28;20046;-65
2023/01/27 06:03:54;;;;;;;0.10;0.10;;;4.50;99.90;;;;;;4987826;28;20474;-64
2023/01/27 06:06:23;;;;;;;0.10;0.10;;;4.50;99.90;;;;;;4987734;28;20042;-65
2023/01/27 06:08:48;;;;;;;1.48;1.33;;;4.50;99.90;;;;;;4988164;28;20038;-65
2023/01/27 06:11:15;;;;;;;0.10;0.10;;;4.50;99.90;;;;;;4987677;28;20052;-65
2023/01/27 06:13:41;;;;;;;7.43;1.58;;;4.50;99.90;;;;;;4988106;28;20038;-65
2023/01/27 06:16:09;;;;;;;0.30;0.30;;;4.50;99.90;;;;;;4989241;28;20436;-65
2023/01/27 06:18:35;;;;;;;0.93;0.88;;;4.50;99.90;;;;;;4980360;28;20076;-65
2023/01/27 06:21:03;;;;;;;2.83;2.63;;;4.60;99.90;;;;;;4987255;28;20077;-66
2023/01/27 06:23:29;;;;;;;0.00;0.00;;;4.60;99.90;;;;;;4979709;28;20417;-65
2023/01/27 06:25:55;;;;;;;0.10;0.10;;;4.60;99.90;;;;;;4988634;28;20042;-65
2023/01/27 06:28:21;;;;;;;0.10;0.10;;;4.60;99.90;;;;;;4988151;28;20381;-65
2023/01/27 06:30:47;;;;;;;0.10;0.10;;;4.70;99.90;;;;;;4970691;28;20050;-65
2023/01/27 06:33:13;;;;;;;0.40;0.40;;;4.70;99.90;;;;;;4987612;28;20139;-65
2023/01/27 06:35:40;;;;;;;0.75;0.75;;;4.70;99.90;;;;;;4989961;28;20163;-65
2023/01/27 06:38:09;;;;;;;0.10;0.10;;;4.70;99.90;;;;;;4984682;28;20046;-65
2023/01/27 06:40:35;;;;;;;0.10;0.10;;;4.70;99.90;;;;;;4986473;28;20049;-65
2023/01/27 06:43:01;;;;;;;0.30;0.30;;;4.70;99.90;;;;;;4986027;28;20045;-65
2023/01/27 06:45:27;;;;;;;0.10;0.10;;;4.80;99.90;;;;;;4985744;28;20078;-65
2023/01/27 06:47:58;;;;;;;0.10;0.10;;;4.80;99.90;;;;;;4985513;28;20569;-65
2023/01/27 06:50:25;;;;;;;0.55;0.55;;;4.80;99.90;;;;;;4988076;28;20056;-65
2023/01/27 06:52:52;;;;;;;2.25;1.15;;;4.80;99.90;;;;;;4983776;28;20034;-66
2023/01/27 06:55:18;;;;;;;0.10;0.10;;;4.80;99.90;;;;;;4982988;28;20394;-67
2023/01/27 06:57:47;;;;;;;1.75;0.80;;;4.80;99.90;;;;;;4985266;28;20498;-66
2023/01/27 07:00:14;;;;;;;0.10;0.10;;;4.80;99.90;;;;;;4986356;28;20042;-66
2023/01/27 07:02:39;;;;;;;0.75;0.75;;;4.80;99.90;;;;;;4986021;28;20173;-66
2023/01/27 07:05:05;;;;;;;0.10;0.10;;;4.80;99.90;;;;;;4986208;28;20482;-66
2023/01/27 07:07:31;;;;;;;0.10;0.10;;;4.80;99.90;;;;;;4970460;28;20057;-66
2023/01/27 07:09:57;;;;;;;0.20;0.20;;;4.90;99.90;;;;;;4987493;28;20062;-66
2023/01/27 07:12:22;;;;;;;0.10;0.10;;;4.90;99.90;;;;;;4986234;28;20399;-66
2023/01/27 07:14:48;;;;;;;0.10;0.10;;;4.80;99.90;;;;;;4970298;28;20050;-66
2023/01/27 07:17:14;;;;;;;0.10;0.10;;;4.80;99.90;;;;;;4986886;28;20088;-66
2023/01/27 07:19:39;;;;;;;0.20;0.20;;;4.90;99.90;;;;;;4987724;28;20502;-66
2023/01/27 07:22:05;;;;;;;0.10;0.10;;;4.90;99.90;;;;;;4985309;28;20142;-66
2023/01/27 07:24:31;;;;;;;3.45;1.13;;;4.90;99.90;;;;;;4988053;28;20475;-66
2023/01/27 07:26:56;;;;;;;0.10;0.10;;;4.90;99.90;;;;;;4983421;28;20409;-66
2023/01/27 07:29:22;;;;;;;0.10;0.10;;;4.90;99.90;;;;;;4986929;28;20125;-66
2023/01/27 07:31:48;;;;;;;0.25;0.25;;;4.90;99.90;;;;;;4988881;28;20120;-65
2023/01/27 07:34:14;;;;;;;0.13;0.13;;;5.00;99.90;;;;;;4987721;28;20050;-65
2023/01/27 07:36:39;;;;;;;0.10;0.10;;;4.90;99.90;;;;;;4988087;28;20522;-66
2023/01/27 07:39:05;;;;;;;1.55;1.30;;;4.90;99.90;;;;;;4978450;28;20586;-65
2023/01/27 07:41:31;;;;;;;0.40;0.40;;;5.00;99.90;;;;;;4986257;28;20501;-67
2023/01/27 07:43:56;;;;;;;0.10;0.10;;;4.90;99.90;;;;;;4987337;28;20883;-65
2023/01/27 07:46:22;;;;;;;0.10;0.10;;;4.90;99.90;;;;;;4970686;28;20049;-65
2023/01/27 07:48:48;;;;;;;0.10;0.10;;;5.00;99.90;;;;;;4986134;28;20058;-66
2023/01/27 07:51:14;;;;;;;0.10;0.10;;;5.00;99.90;;;;;;4987228;28;20104;-65
2023/01/27 07:53:41;;;;;;;1.33;1.08;;;5.00;99.90;;;;;;4987302;28;20053;-65
2023/01/27 07:56:10;;;;;;;0.45;0.45;;;4.90;99.90;;;;;;4987687;28;20529;-65
2023/01/27 07:58:40;;;;;;;1.95;1.65;;;5.00;99.90;;;;;;4986604;28;20559;-65
2023/01/27 08:01:11;;;;;;;0.75;0.75;;;5.00;99.90;;;;;;4974899;28;20057;-65
2023/01/27 08:03:37;;;;;;;0.10;0.10;;;5.00;99.90;;;;;;4987509;28;20146;-65
2023/01/27 08:06:08;;;;;;;0.20;0.20;;;5.00;99.90;;;;;;4986982;28;20057;-65
2023/01/27 08:08:34;;;;;;;0.00;0.00;;;5.00;99.90;;;;;;4988726;28;20050;-65
2023/01/27 08:11:02;;;;;;;0.85;0.85;;;5.00;99.90;;;;;;4986083;28;20626;-65
2023/01/27 08:13:29;;;;;;;0.20;0.20;;;5.00;99.90;;;;;;4988478;28;20099;-66
2023/01/27 08:15:59;;;;;;;0.10;0.10;;;5.00;99.90;;;;;;4988143;28;20081;-65
2023/01/27 08:18:26;;;;;;;1.70;1.60;;;5.10;99.90;;;;;;4969601;28;20046;-65
2023/01/27 08:20:53;;;;;;;0.10;0.10;;;5.00;99.90;;;;;;4986818;28;20046;-65
2023/01/27 08:23:21;;;;;;;11.70;0.95;;;5.00;99.90;;;;;;4990336;28;20050;-66
2023/01/27 08:25:51;;;;;;;0.10;0.10;;;5.00;99.90;;;;;;4990698;28;20046;-65
2023/01/27 08:28:17;;;;;;;0.10;0.10;;;5.00;99.90;;;;;;4989163;28;20049;-65
2023/01/27 08:30:43;;;;;;;0.32;0.32;;;5.10;99.90;;;;;;4991812;28;20050;-65
2023/01/27 08:33:09;;;;;;;0.10;0.10;;;5.10;99.90;;;;;;4989364;28;20188;-66
2023/01/27 08:35:37;;;;;;;0.05;0.05;;;5.10;99.90;;;;;;4974525;28;20817;-65
2023/01/27 08:38:03;;;;;;;0.10;0.10;;;5.10;99.90;;;;;;4987616;28;20089;-65
2023/01/27 08:40:29;;;;;;;0.10;0.10;;;5.10;99.90;;;;;;4989457;28;20054;-65
2023/01/27 08:42:55;;;;;;;0.10;0.10;;;5.20;99.90;;;;;;4971094;28;20494;-65
2023/01/27 08:45:21;;;;;;;0.13;0.13;;;5.20;99.90;;;;;;4971021;28;20501;-65
2023/01/27 08:47:47;;;;;;;0.10;0.10;;;5.20;99.90;;;;;;4986948;28;20042;-66
2023/01/27 08:50:12;;;;;;;0.10;0.10;;;5.20;99.90;;;;;;4989873;28;20403;-65
2023/01/27 08:52:38;;;;;;;0.10;0.10;;;5.20;99.90;;;;;;4973686;28;20042;-65
2023/01/27 08:55:04;;;;;;;0.10;0.10;;;5.20;99.90;;;;;;4988067;28;20090;-65
2023/01/27 08:57:31;;;;;;;0.10;0.10;;;5.20;99.90;;;;;;4991332;28;20034;-65
2023/01/27 08:59:57;;;;;;;0.10;0.10;;;5.30;99.90;;;;;;4990181;28;20038;-66
2023/01/27 09:02:23;;;;;;;0.10;0.10;;;5.20;99.90;;;;;;4990356;28;20184;-65
2023/01/27 09:04:50;;;;;;;0.10;0.10;;;5.30;99.90;;;;;;4990929;28;20068;-65
2023/01/27 09:07:17;;;;;;;0.10;0.10;;;5.30;99.90;;;;;;4990221;28;20062;-65
2023/01/27 09:09:46;;;;;;;0.10;0.10;;;5.30;99.90;;;;;;4989860;28;20049;-65
2023/01/27 09:12:11;;;;;;;0.10;0.10;;;5.30;99.90;;;;;;4990599;28;20046;-65
2023/01/27 09:14:37;;;;;;;0.10;0.10;;;5.40;99.90;;;;;;4986410;28;20058;-66
2023/01/27 09:17:03;;;;;;;0.10;0.10;;;5.30;99.90;;;;;;4989838;28;20057;-65
2023/01/27 09:19:28;;;;;;;0.20;0.20;;;5.30;99.90;;;;;;4989524;28;20046;-65
2023/01/27 09:21:54;;;;;;;0.10;0.10;;;5.30;99.90;;;;;;4981277;28;20050;-66
2023/01/27 09:24:20;;;;;;;0.00;0.00;;;5.30;99.90;;;;;;4988737;28;20125;-66
2023/01/27 09:26:45;;;;;;;0.00;0.00;;;5.30;99.90;;;;;;4983934;28;20050;-66
2023/01/27 09:29:11;;;;;;;0.10;0.10;;;5.40;99.90;;;;;;4987960;28;20517;-66
2023/01/27 09:31:37;;;;;;;0.10;0.10;;;5.40;99.90;;;;;;4985048;28;21114;-67
2023/01/27 09:34:03;;;;;;;0.10;0.10;;;5.40;99.90;;;;;;4985886;28;20042;-66
2023/01/27 09:36:31;;;;;;;0.10;0.10;;;5.40;99.90;;;;;;4984447;28;20169;-65
2023/01/27 09:39:04;;;;;;;0.10;0.10;;;5.40;99.90;;;;;;4987952;28;20042;-66
2023/01/27 09:41:48;;;;;;;;;;;5.40;99.90;;;;;;4986107;28;20133;-66
2023/01/27 09:44:16;;;;;;;2.25;2.08;;;5.40;99.90;;;;;;4989219;28;19921;-66
2023/01/27 09:47:03;;;;;;;0.10;0.10;;;5.40;99.90;;;;;;4970716;28;20544;-66
2023/01/27 09:49:50;;;;;;;0.10;0.10;;;5.40;99.90;;;;;;4988449;28;20046;-65
2023/01/27 09:52:22;;;;;;;0.10;0.10;;;5.50;99.90;;;;;;4990568;28;20108;-66
2023/01/27 09:55:11;;;;;;;0.10;0.10;;;5.50;99.90;;;;;;4989000;28;20129;-66
2023/01/27 09:58:14;;;;;;;0.10;0.10;;;5.50;99.90;;;;;;4989522;28;20038;-66
2023/01/27 10:01:00;;;;;;;0.03;0.03;;;5.60;99.90;;;;;;4987938;28;20182;-66
2023/01/27 10:03:55;;;;;;;0.10;0.10;;;5.60;99.90;;;;;;4983640;28;20085;-65
2023/01/27 10:06:41;;;;;;;0.10;0.10;;;5.70;99.90;;;;;;4959356;28;20093;-65
2023/01/27 10:09:38;;;;;;;0.10;0.10;;;5.70;99.90;;;;;;4989609;28;20049;-66
2023/01/27 10:12:39;;;;;;;0.10;0.10;;;5.80;99.90;;;;;;4986879;28;20035;-66
2023/01/27 10:15:12;;;;;;;0.10;0.10;;;5.80;99.90;;;;;;4982425;28;20081;-65
2023/01/27 10:17:50;;;;;;;0.10;0.10;;;5.70;99.90;;;;;;4989593;28;20046;-66
2023/01/27 10:20:24;;;;;;;0.10;0.10;;;5.70;99.90;;;;;;4988925;28;20069;-66
2023/01/27 10:22:55;;;;;;;0.10;0.10;;;5.70;99.90;;;;;;4989291;28;20065;-66
2023/01/27 10:25:45;;;;;;;0.10;0.10;;;5.70;99.90;;;;;;4977223;28;20042;-66
2023/01/27 10:28:14;;;;;;;0.10;0.10;;;5.70;99.90;;;;;;4987531;28;20117;-66
2023/01/27 10:30:59;;;;;;;0.10;0.10;;;5.70;99.90;;;;;;4985197;28;20333;-66
2023/01/27 10:33:35;;;;;;;0.00;0.00;;;5.80;99.90;;;;;;4988754;28;20043;-66
2023/01/27 10:36:14;;;;;;;0.17;0.17;;;5.70;99.90;;;;;;4986484;28;20051;-66
2023/01/27 10:38:47;;;;;;;0.10;0.10;;;5.70;99.90;;;;;;4983850;28;20074;-67
2023/01/27 10:41:42;;;;;;;0.10;0.10;;;5.80;99.90;;;;;;4988732;28;20311;-67
2023/01/27 10:44:20;;;;;;;0.10;0.10;;;5.90;99.90;;;;;;4987327;28;20038;-67
2023/01/27 10:47:16;;;;;;;0.10;0.10;;;5.90;99.90;;;;;;4988087;28;20053;-67
2023/01/27 10:49:52;;;;;;;0.10;0.10;;;6.00;99.90;;;;;;4987623;28;20054;-67
2023/01/27 10:52:33;;;;;;;0.10;0.10;;;5.90;99.90;;;;;;4988699;28;20046;-67
2023/01/27 10:55:32;;;;;;;0.10;0.10;;;6.00;99.90;;;;;;4970880;28;20046;-65
2023/01/27 10:58:39;;;;;;;0.10;0.10;;;6.00;99.90;;;;;;4988155;28;20061;-65
2023/01/27 11:01:06;;;;;;;0.10;0.10;;;6.00;99.90;;;;;;4963883;28;20051;-65
2023/01/27 11:03:40;;;;;;;0.20;0.20;;;6.10;99.90;;;;;;4984255;28;20133;-65
2023/01/27 11:06:14;;;;;;;0.10;0.10;;;6.10;99.90;;;;;;4988390;28;20042;-65
2023/01/27 11:08:44;;;;;;;1.55;1.45;;;6.00;99.90;;;;;;4980859;28;20077;-66
2023/01/27 11:14:03;;;;;;;0.10;0.10;;;5.90;99.90;;;;;;4988095;28;20046;-66
2023/01/27 11:16:36;;;;;;;0.10;0.10;;;6.00;99.90;;;;;;4986808;28;20070;-66
2023/01/27 11:19:14;;;;;;;0.05;0.05;;;6.00;99.90;;;;;;4988616;28;20126;-66
2023/01/27 11:21:40;;;;;;;0.10;0.10;;;6.00;99.90;;;;;;4986967;28;20129;-67
2023/01/27 11:24:43;;;;;;;1.02;0.73;;;6.00;99.90;;;;;;4970866;28;20057;-66
2023/01/27 11:27:31;;;;;;;0.22;0.22;;;6.00;99.90;;;;;;4964531;28;20698;-66
2023/01/27 11:30:07;;;;;;;0.10;0.10;;;5.90;99.90;;;;;;4968427;28;20579;-67
2023/01/27 11:32:45;;;;;;;0.10;0.10;;;5.90;99.90;;;;;;4989406;28;20069;-67
2023/01/27 11:35:13;;;;;;;2.08;1.33;;;5.90;99.90;;;;;;4976668;28;20081;-67
2023/01/27 11:37:42;;;;;;;0.10;0.10;;;5.90;99.90;;;;;;4986619;28;20054;-66
2023/01/27 11:40:20;;;;;;;0.10;0.10;;;5.90;99.90;;;;;;4984877;28;20056;-66
2023/01/27 11:42:46;;;;;;;0.10;0.10;;;5.90;99.90;;;;;;4988101;28;20050;-66
2023/01/27 11:45:17;;;;;;;0.10;0.10;;;5.90;99.90;;;;;;4987870;28;20207;-67
2023/01/27 11:47:47;;;;;;;0.10;0.10;;;5.90;99.90;;;;;;4988463;28;20054;-67
2023/01/27 11:50:16;;;;;;;0.10;0.10;;;5.90;99.90;;;;;;4986233;28;20161;-66
2023/01/27 11:52:45;;;;;;;0.10;0.10;;;5.90;99.90;;;;;;4988585;28;20061;-66
2023/01/27 11:55:19;;;;;;;0.05;0.05;;;6.00;99.90;;;;;;4988623;28;20088;-66
2023/01/27 11:57:51;;;;;;;0.13;0.13;;;6.00;99.90;;;;;;4988885;28;20030;-66
2023/01/27 12:00:23;;;;;;;0.10;0.10;;;6.00;99.90;;;;;;4991094;28;20081;-66
2023/01/27 12:03:12;;;;;;;0.10;0.10;;;6.10;99.90;;;;;;4991633;28;20050;-66
2023/01/27 12:05:44;;;;;;;0.10;0.10;;;6.20;99.90;;;;;;4973652;28;20043;-67
2023/01/27 12:08:10;;;;;;;0.10;0.10;;;6.30;99.90;;;;;;4991806;28;20046;-66
2023/01/27 12:10:41;;;;;;;0.10;0.10;;;6.50;99.90;;;;;;4970269;28;20054;-66
2023/01/27 12:13:26;;;;;;;0.10;0.10;;;6.50;99.90;;;;;;4974856;28;20202;-66
2023/01/27 12:15:58;;;;;;;0.10;0.10;;;6.40;99.90;;;;;;4990474;28;20077;-68
2023/01/27 12:18:24;;;;;;;0.15;0.15;;;6.40;99.90;;;;;;4987969;28;20050;-65
2023/01/27 12:21:02;;;;;;;0.10;0.10;;;6.30;99.90;;;;;;4987208;28;20062;-67
2023/01/27 12:23:35;;;;;;;0.10;0.10;;;6.30;99.90;;;;;;4974536;28;20054;-66
2023/01/27 12:26:03;;;;;;;0.90;0.90;;;6.30;99.90;;;;;;4989639;28;20510;-67
2023/01/27 12:28:33;;;;;;;0.10;0.10;;;6.30;99.90;;;;;;4974412;28;20046;-67
2023/01/27 12:31:07;;;;;;;0.10;0.10;;;6.20;99.90;;;;;;4989159;28;20049;-67
2023/01/27 12:33:36;;;;;;;0.10;0.10;;;6.20;99.90;;;;;;4991415;28;20055;-66
2023/01/27 12:36:13;;;;;;;0.10;0.10;;;6.20;99.90;;;;;;4984308;28;20042;-67
2023/01/27 12:38:45;;;;;;;0.10;0.10;;;6.10;99.90;;;;;;4988574;28;20055;-65
2023/01/27 12:41:18;;;;;;;0.10;0.10;;;6.10;99.90;;;;;;4986952;28;20053;-65
2023/01/27 12:43:53;;;;;;;0.10;0.10;;;6.10;99.90;;;;;;4989542;28;20047;-65
2023/01/27 12:46:26;;;;;;;0.10;0.10;;;6.10;99.90;;;;;;4990115;28;20541;-65
2023/01/27 12:49:09;;;;;;;0.28;0.28;;;6.20;99.90;;;;;;4990504;28;20054;-65
2023/01/27 12:51:42;;;;;;;0.10;0.10;;;6.20;99.90;;;;;;4988303;28;20406;-65
2023/01/27 12:54:18;;;;;;;0.00;0.00;;;6.30;99.90;;;;;;4986543;28;20073;-66
2023/01/27 12:56:45;;;;;;;0.63;0.63;;;6.20;99.90;;;;;;4987496;28;20100;-66
2023/01/27 12:59:16;;;;;;;0.20;0.20;;;6.20;99.90;;;;;;4988274;28;20046;-67
2023/01/27 13:01:43;;;;;;;0.10;0.10;;;6.10;99.90;;;;;;4983435;28;20057;-66
2023/01/27 13:04:19;;;;;;;0.05;0.05;;;6.10;99.90;;;;;;4987143;28;20046;-66
2023/01/27 13:06:53;;;;;;;0.10;0.10;;;6.10;99.90;;;;;;4990191;28;20042;-66
2023/01/27 13:09:30;;;;;;;0.10;0.10;;;6.10;99.90;;;;;;4989619;28;20093;-66
2023/01/27 13:11:59;;;;;;;0.00;0.00;;;6.00;99.90;;;;;;4989683;28;20150;-66
2023/01/27 13:14:29;;;;;;;0.00;0.00;;;6.10;99.90;;;;;;4990429;28;20487;-66
2023/01/27 13:16:59;;;;;;;0.00;0.00;;;6.00;99.90;;;;;;4990671;28;20571;-66
2023/01/27 13:19:42;;;;;;;0.10;0.10;;;6.00;99.90;;;;;;4989514;28;20042;-66
2023/01/27 13:22:16;;;;;;;0.20;0.20;;;5.90;99.90;;;;;;4983342;28;20082;-66
2023/01/27 13:24:44;;;;;;;0.10;0.10;;;5.90;99.90;;;;;;4988553;28;20301;-66
2023/01/27 13:27:19;;;;;;;0.10;0.10;;;5.90;99.90;;;;;;4988219;28;20050;-65
2023/01/27 13:30:28;;;;;;;0.10;0.10;;;6.00;99.90;;;;;;4987723;28;20050;-66
2023/01/27 13:33:27;;;;;;;0.40;0.40;;;6.00;99.90;;;;;;4981574;28;20421;-67
2023/01/27 13:36:35;;;;;;;0.00;0.00;;;6.00;99.90;;;;;;4967706;28;20411;-66
2023/01/27 13:39:06;;;;;;;0.10;0.10;;;6.00;99.90;;;;;;4983045;28;20046;-66
2023/01/27 13:42:05;;;;;;;0.10;0.10;;;6.10;99.90;;;;;;4986091;28;20042;-66
2023/01/27 13:44:39;;;;;;;1.45;1.20;;;6.00;99.90;;;;;;4987188;28;20039;-67
2023/01/27 13:47:15;;;;;;;0.10;0.10;;;6.00;99.90;;;;;;4990038;28;20477;-66
2023/01/27 13:49:45;;;;;;;0.10;0.10;;;6.00;99.90;;;;;;4988078;28;20057;-66